sensor_id;sensor_type;location;lat;lon;timestamp;P1;durP1;ratioP1;P2;durP2;ratioP2
21527;SDS011;10925;49.102;-0.370;2022-08-19T00:01:53;9.18;;;2.70;;
21527;SDS011;10925;49.102;-0.370;2022-08-19T00:04:21;5.72;;;2.33;;
21527;SDS011;10925;49.102;-0.370;2022-08-19T00:06:47;7.20;;;2.58;;
21527;SDS011;10925;49.102;-0.370;2022-08-19T00:09:14;5.80;;;2.35;;
21527;SDS011;10925;49.102;-0.370;2022-08-19T00:11:41;4.63;;;2.30;;
21527;SDS011;10925;49.102;-0.370;2022-08-19T00:14:08;7.50;;;2.50;;
21527;SDS011;10925;49.102;-0.370;2022-08-19T00:16:35;5.97;;;2.50;;
21527;SDS011;10925;49.102;-0.370;2022-08-19T00:19:02;5.97;;;2.53;;
21527;SDS011;10925;49.102;-0.370;2022-08-19T00:21:29;10.20;;;2.63;;
21527;SDS011;10925;49.102;-0.370;2022-08-19T00:23:56;7.97;;;2.58;;
21527;SDS011;10925;49.102;-0.370;2022-08-19T00:26:27;9.75;;;2.72;;
21527;SDS011;10925;49.102;-0.370;2022-08-19T00:28:54;6.40;;;2.85;;
21527;SDS011;10925;49.102;-0.370;2022-08-19T00:31:19;7.80;;;2.67;;
21527;SDS011;10925;49.102;-0.370;2022-08-19T00:33:47;11.50;;;2.70;;
21527;SDS011;10925;49.102;-0.370;2022-08-19T00:36:17;8.65;;;3.20;;
21527;SDS011;10925;49.102;-0.370;2022-08-19T00:38:43;10.82;;;3.20;;
21527;SDS011;10925;49.102;-0.370;2022-08-19T00:41:14;7.28;;;2.60;;
21527;SDS011;10925;49.102;-0.370;2022-08-19T00:43:41;9.30;;;3.05;;
21527;SDS011;10925;49.102;-0.370;2022-08-19T00:46:06;13.20;;;3.42;;
21527;SDS011;10925;49.102;-0.370;2022-08-19T00:48:32;12.98;;;3.30;;
21527;SDS011;10925;49.102;-0.370;2022-08-19T00:51:00;11.25;;;3.58;;
21527;SDS011;10925;49.102;-0.370;2022-08-19T00:53:27;15.07;;;4.00;;
21527;SDS011;10925;49.102;-0.370;2022-08-19T00:55:55;13.77;;;3.47;;
21527;SDS011;10925;49.102;-0.370;2022-08-19T00:58:24;10.48;;;3.53;;
21527;SDS011;10925;49.102;-0.370;2022-08-19T01:00:53;8.57;;;3.42;;
21527;SDS011;10925;49.102;-0.370;2022-08-19T01:03:20;10.20;;;3.13;;
21527;SDS011;10925;49.102;-0.370;2022-08-19T01:05:47;13.57;;;3.25;;
21527;SDS011;10925;49.102;-0.370;2022-08-19T01:08:15;9.43;;;2.92;;
21527;SDS011;10925;49.102;-0.370;2022-08-19T01:10:44;7.63;;;3.22;;
21527;SDS011;10925;49.102;-0.370;2022-08-19T01:13:14;6.55;;;2.97;;
21527;SDS011;10925;49.102;-0.370;2022-08-19T01:15:45;6.68;;;3.30;;
21527;SDS011;10925;49.102;-0.370;2022-08-19T01:18:12;8.10;;;2.83;;
21527;SDS011;10925;49.102;-0.370;2022-08-19T01:20:40;10.73;;;2.70;;
21527;SDS011;10925;49.102;-0.370;2022-08-19T01:23:07;10.48;;;3.10;;
21527;SDS011;10925;49.102;-0.370;2022-08-19T01:28:18;5.90;;;2.95;;
21527;SDS011;10925;49.102;-0.370;2022-08-19T01:30:59;10.68;;;3.38;;
21527;SDS011;10925;49.102;-0.370;2022-08-19T01:33:33;8.35;;;3.20;;
21527;SDS011;10925;49.102;-0.370;2022-08-19T01:36:11;7.45;;;2.88;;
21527;SDS011;10925;49.102;-0.370;2022-08-19T01:38:38;9.75;;;3.65;;
21527;SDS011;10925;49.102;-0.370;2022-08-19T01:41:05;11.70;;;3.30;;
21527;SDS011;10925;49.102;-0.370;2022-08-19T01:43:36;8.77;;;2.58;;
21527;SDS011;10925;49.102;-0.370;2022-08-19T01:46:23;7.72;;;2.83;;
21527;SDS011;10925;49.102;-0.370;2022-08-19T01:48:51;9.75;;;3.20;;
21527;SDS011;10925;49.102;-0.370;2022-08-19T01:51:17;7.63;;;3.33;;
21527;SDS011;10925;49.102;-0.370;2022-08-19T01:53:46;6.90;;;2.92;;
21527;SDS011;10925;49.102;-0.370;2022-08-19T01:56:13;14.02;;;3.42;;
21527;SDS011;10925;49.102;-0.370;2022-08-19T01:58:44;8.80;;;3.17;;
21527;SDS011;10925;49.102;-0.370;2022-08-19T02:01:14;8.63;;;3.60;;
21527;SDS011;10925;49.102;-0.370;2022-08-19T02:03:41;11.50;;;3.53;;
21527;SDS011;10925;49.102;-0.370;2022-08-19T02:06:08;12.05;;;3.35;;
21527;SDS011;10925;49.102;-0.370;2022-08-19T02:08:37;10.73;;;3.45;;
21527;SDS011;10925;49.102;-0.370;2022-08-19T02:11:04;8.90;;;3.38;;
21527;SDS011;10925;49.102;-0.370;2022-08-19T02:13:31;8.50;;;3.50;;
21527;SDS011;10925;49.102;-0.370;2022-08-19T02:15:57;8.63;;;3.63;;
21527;SDS011;10925;49.102;-0.370;2022-08-19T02:18:28;11.13;;;3.00;;
21527;SDS011;10925;49.102;-0.370;2022-08-19T02:21:02;8.70;;;3.58;;
21527;SDS011;10925;49.102;-0.370;2022-08-19T02:23:29;10.82;;;3.90;;
21527;SDS011;10925;49.102;-0.370;2022-08-19T02:25:55;9.10;;;3.47;;
21527;SDS011;10925;49.102;-0.370;2022-08-19T02:28:22;10.75;;;3.40;;
21527;SDS011;10925;49.102;-0.370;2022-08-19T02:30:48;8.65;;;3.45;;
21527;SDS011;10925;49.102;-0.370;2022-08-19T02:33:13;7.18;;;3.35;;
21527;SDS011;10925;49.102;-0.370;2022-08-19T02:35:42;10.82;;;3.92;;
21527;SDS011;10925;49.102;-0.370;2022-08-19T02:38:09;12.65;;;3.30;;
21527;SDS011;10925;49.102;-0.370;2022-08-19T02:40:53;9.10;;;3.70;;
21527;SDS011;10925;49.102;-0.370;2022-08-19T02:43:19;11.27;;;4.10;;
21527;SDS011;10925;49.102;-0.370;2022-08-19T02:45:47;9.48;;;3.80;;
21527;SDS011;10925;49.102;-0.370;2022-08-19T02:48:15;12.13;;;3.53;;
21527;SDS011;10925;49.102;-0.370;2022-08-19T02:50:47;9.48;;;4.00;;
21527;SDS011;10925;49.102;-0.370;2022-08-19T02:53:16;8.85;;;3.85;;
21527;SDS011;10925;49.102;-0.370;2022-08-19T02:55:43;11.93;;;4.63;;
21527;SDS011;10925;49.102;-0.370;2022-08-19T02:58:08;9.82;;;3.78;;
21527;SDS011;10925;49.102;-0.370;2022-08-19T03:00:34;14.10;;;4.63;;
21527;SDS011;10925;49.102;-0.370;2022-08-19T03:03:07;12.88;;;4.63;;
21527;SDS011;10925;49.102;-0.370;2022-08-19T03:05:34;11.52;;;3.92;;
21527;SDS011;10925;49.102;-0.370;2022-08-19T03:07:59;15.18;;;4.43;;
21527;SDS011;10925;49.102;-0.370;2022-08-19T03:10:26;7.28;;;3.83;;
21527;SDS011;10925;49.102;-0.370;2022-08-19T03:12:52;10.18;;;4.57;;
21527;SDS011;10925;49.102;-0.370;2022-08-19T03:15:19;9.95;;;4.30;;
21527;SDS011;10925;49.102;-0.370;2022-08-19T03:17:46;16.63;;;4.60;;
21527;SDS011;10925;49.102;-0.370;2022-08-19T03:20:13;8.95;;;3.95;;
21527;SDS011;10925;49.102;-0.370;2022-08-19T03:22:40;15.65;;;4.80;;
21527;SDS011;10925;49.102;-0.370;2022-08-19T03:25:05;9.15;;;4.43;;
21527;SDS011;10925;49.102;-0.370;2022-08-19T03:27:31;11.30;;;4.05;;
21527;SDS011;10925;49.102;-0.370;2022-08-19T03:29:56;12.82;;;3.92;;
21527;SDS011;10925;49.102;-0.370;2022-08-19T03:32:23;13.30;;;4.78;;
21527;SDS011;10925;49.102;-0.370;2022-08-19T03:34:58;12.85;;;4.35;;
21527;SDS011;10925;49.102;-0.370;2022-08-19T03:37:25;8.80;;;3.90;;
21527;SDS011;10925;49.102;-0.370;2022-08-19T03:39:52;11.38;;;3.97;;
21527;SDS011;10925;49.102;-0.370;2022-08-19T03:42:19;11.13;;;4.28;;
21527;SDS011;10925;49.102;-0.370;2022-08-19T03:45:06;15.18;;;4.45;;
21527;SDS011;10925;49.102;-0.370;2022-08-19T03:47:33;11.77;;;4.32;;
21527;SDS011;10925;49.102;-0.370;2022-08-19T03:49:59;11.10;;;4.05;;
21527;SDS011;10925;49.102;-0.370;2022-08-19T03:52:26;13.60;;;3.88;;
21527;SDS011;10925;49.102;-0.370;2022-08-19T03:54:52;12.32;;;4.25;;
21527;SDS011;10925;49.102;-0.370;2022-08-19T04:00:08;8.13;;;3.55;;
21527;SDS011;10925;49.102;-0.370;2022-08-19T04:02:34;10.95;;;3.83;;
21527;SDS011;10925;49.102;-0.370;2022-08-19T04:05:01;7.70;;;3.40;;
21527;SDS011;10925;49.102;-0.370;2022-08-19T04:07:28;8.80;;;4.18;;
21527;SDS011;10925;49.102;-0.370;2022-08-19T04:09:54;11.68;;;3.80;;
21527;SDS011;10925;49.102;-0.370;2022-08-19T04:12:21;9.38;;;3.88;;
21527;SDS011;10925;49.102;-0.370;2022-08-19T04:14:48;12.52;;;4.05;;
21527;SDS011;10925;49.102;-0.370;2022-08-19T04:17:14;10.07;;;3.95;;
21527;SDS011;10925;49.102;-0.370;2022-08-19T04:19:40;10.50;;;4.15;;
21527;SDS011;10925;49.102;-0.370;2022-08-19T04:22:08;15.95;;;3.90;;
21527;SDS011;10925;49.102;-0.370;2022-08-19T04:24:35;12.60;;;4.43;;
21527;SDS011;10925;49.102;-0.370;2022-08-19T04:27:01;13.57;;;4.22;;
21527;SDS011;10925;49.102;-0.370;2022-08-19T04:29:29;12.52;;;4.05;;
21527;SDS011;10925;49.102;-0.370;2022-08-19T04:31:56;11.10;;;4.03;;
21527;SDS011;10925;49.102;-0.370;2022-08-19T04:34:25;7.97;;;4.20;;
21527;SDS011;10925;49.102;-0.370;2022-08-19T04:36:53;7.53;;;4.07;;
21527;SDS011;10925;49.102;-0.370;2022-08-19T04:39:22;12.05;;;4.20;;
21527;SDS011;10925;49.102;-0.370;2022-08-19T04:42:10;11.75;;;4.03;;
21527;SDS011;10925;49.102;-0.370;2022-08-19T04:44:56;10.23;;;4.13;;
21527;SDS011;10925;49.102;-0.370;2022-08-19T04:47:25;14.73;;;4.10;;
21527;SDS011;10925;49.102;-0.370;2022-08-19T04:52:38;10.85;;;3.78;;
21527;SDS011;10925;49.102;-0.370;2022-08-19T04:55:07;10.35;;;3.40;;
21527;SDS011;10925;49.102;-0.370;2022-08-19T04:57:33;7.93;;;3.70;;
21527;SDS011;10925;49.102;-0.370;2022-08-19T04:59:58;6.32;;;3.83;;
21527;SDS011;10925;49.102;-0.370;2022-08-19T05:02:25;12.70;;;4.40;;
21527;SDS011;10925;49.102;-0.370;2022-08-19T05:04:57;8.25;;;3.70;;
21527;SDS011;10925;49.102;-0.370;2022-08-19T05:07:25;7.97;;;3.60;;
21527;SDS011;10925;49.102;-0.370;2022-08-19T05:09:52;11.15;;;4.18;;
21527;SDS011;10925;49.102;-0.370;2022-08-19T05:12:24;6.32;;;3.58;;
21527;SDS011;10925;49.102;-0.370;2022-08-19T05:14:55;15.52;;;3.50;;
21527;SDS011;10925;49.102;-0.370;2022-08-19T05:17:24;5.35;;;3.80;;
21527;SDS011;10925;49.102;-0.370;2022-08-19T05:19:55;8.98;;;3.55;;
21527;SDS011;10925;49.102;-0.370;2022-08-19T05:22:42;8.02;;;3.65;;
21527;SDS011;10925;49.102;-0.370;2022-08-19T05:25:10;8.13;;;2.88;;
21527;SDS011;10925;49.102;-0.370;2022-08-19T05:27:39;8.02;;;3.10;;
21527;SDS011;10925;49.102;-0.370;2022-08-19T05:30:05;7.07;;;3.40;;
21527;SDS011;10925;49.102;-0.370;2022-08-19T05:32:31;5.22;;;2.90;;
21527;SDS011;10925;49.102;-0.370;2022-08-19T05:34:58;8.95;;;3.17;;
21527;SDS011;10925;49.102;-0.370;2022-08-19T05:37:23;9.18;;;3.35;;
21527;SDS011;10925;49.102;-0.370;2022-08-19T05:39:53;4.65;;;3.30;;
21527;SDS011;10925;49.102;-0.370;2022-08-19T05:42:21;6.63;;;3.40;;
21527;SDS011;10925;49.102;-0.370;2022-08-19T05:44:50;4.72;;;3.40;;
21527;SDS011;10925;49.102;-0.370;2022-08-19T05:47:17;10.93;;;3.10;;
21527;SDS011;10925;49.102;-0.370;2022-08-19T05:49:46;11.23;;;3.60;;
21527;SDS011;10925;49.102;-0.370;2022-08-19T05:52:13;7.25;;;2.95;;
21527;SDS011;10925;49.102;-0.370;2022-08-19T05:54:44;6.18;;;3.25;;
21527;SDS011;10925;49.102;-0.370;2022-08-19T05:59:43;6.28;;;3.40;;
21527;SDS011;10925;49.102;-0.370;2022-08-19T06:02:12;5.80;;;2.78;;
21527;SDS011;10925;49.102;-0.370;2022-08-19T06:04:39;4.65;;;3.03;;
21527;SDS011;10925;49.102;-0.370;2022-08-19T06:07:09;6.45;;;3.45;;
21527;SDS011;10925;49.102;-0.370;2022-08-19T06:09:38;4.50;;;2.75;;
21527;SDS011;10925;49.102;-0.370;2022-08-19T06:12:05;6.30;;;3.15;;
21527;SDS011;10925;49.102;-0.370;2022-08-19T06:14:33;4.35;;;2.75;;
21527;SDS011;10925;49.102;-0.370;2022-08-19T06:17:07;6.72;;;3.22;;
21527;SDS011;10925;49.102;-0.370;2022-08-19T06:19:33;5.78;;;3.10;;
21527;SDS011;10925;49.102;-0.370;2022-08-19T06:22:06;6.35;;;3.08;;
21527;SDS011;10925;49.102;-0.370;2022-08-19T06:24:34;5.38;;;2.55;;
21527;SDS011;10925;49.102;-0.370;2022-08-19T06:27:00;6.20;;;3.40;;
21527;SDS011;10925;49.102;-0.370;2022-08-19T06:29:26;6.53;;;2.85;;
21527;SDS011;10925;49.102;-0.370;2022-08-19T06:31:53;5.95;;;2.90;;
21527;SDS011;10925;49.102;-0.370;2022-08-19T06:34:20;5.38;;;2.95;;
21527;SDS011;10925;49.102;-0.370;2022-08-19T06:36:47;5.63;;;3.00;;
21527;SDS011;10925;49.102;-0.370;2022-08-19T06:39:16;9.02;;;3.25;;
21527;SDS011;10925;49.102;-0.370;2022-08-19T06:41:44;4.65;;;2.35;;
21527;SDS011;10925;49.102;-0.370;2022-08-19T06:44:19;7.90;;;2.47;;
21527;SDS011;10925;49.102;-0.370;2022-08-19T06:46:46;5.18;;;2.38;;
21527;SDS011;10925;49.102;-0.370;2022-08-19T06:49:20;5.40;;;2.22;;
21527;SDS011;10925;49.102;-0.370;2022-08-19T06:51:47;6.88;;;2.60;;
21527;SDS011;10925;49.102;-0.370;2022-08-19T06:54:17;5.03;;;2.20;;
21527;SDS011;10925;49.102;-0.370;2022-08-19T06:56:45;5.38;;;2.35;;
21527;SDS011;10925;49.102;-0.370;2022-08-19T06:59:13;5.57;;;2.53;;
21527;SDS011;10925;49.102;-0.370;2022-08-19T07:01:45;8.70;;;2.17;;
21527;SDS011;10925;49.102;-0.370;2022-08-19T07:04:14;5.90;;;2.40;;
21527;SDS011;10925;49.102;-0.370;2022-08-19T07:06:41;4.88;;;2.00;;
21527;SDS011;10925;49.102;-0.370;2022-08-19T07:09:07;3.95;;;1.90;;
21527;SDS011;10925;49.102;-0.370;2022-08-19T07:11:34;6.68;;;2.10;;
21527;SDS011;10925;49.102;-0.370;2022-08-19T07:14:03;6.93;;;2.15;;
21527;SDS011;10925;49.102;-0.370;2022-08-19T07:16:30;3.53;;;2.08;;
21527;SDS011;10925;49.102;-0.370;2022-08-19T07:18:57;7.85;;;2.45;;
21527;SDS011;10925;49.102;-0.370;2022-08-19T07:21:23;6.18;;;2.30;;
21527;SDS011;10925;49.102;-0.370;2022-08-19T07:23:51;8.57;;;2.40;;
21527;SDS011;10925;49.102;-0.370;2022-08-19T07:26:19;4.47;;;1.90;;
21527;SDS011;10925;49.102;-0.370;2022-08-19T07:28:46;6.97;;;2.40;;
21527;SDS011;10925;49.102;-0.370;2022-08-19T07:31:12;6.97;;;1.92;;
21527;SDS011;10925;49.102;-0.370;2022-08-19T07:33:40;4.57;;;2.13;;
21527;SDS011;10925;49.102;-0.370;2022-08-19T07:36:10;4.95;;;2.13;;
21527;SDS011;10925;49.102;-0.370;2022-08-19T07:38:41;6.80;;;2.20;;
21527;SDS011;10925;49.102;-0.370;2022-08-19T07:41:11;6.00;;;1.80;;
21527;SDS011;10925;49.102;-0.370;2022-08-19T07:43:39;8.40;;;2.30;;
21527;SDS011;10925;49.102;-0.370;2022-08-19T07:46:06;6.47;;;2.25;;
21527;SDS011;10925;49.102;-0.370;2022-08-19T07:48:38;7.35;;;2.22;;
21527;SDS011;10925;49.102;-0.370;2022-08-19T07:51:05;6.38;;;2.05;;
21527;SDS011;10925;49.102;-0.370;2022-08-19T07:53:35;6.40;;;2.38;;
21527;SDS011;10925;49.102;-0.370;2022-08-19T07:56:05;5.97;;;2.20;;
21527;SDS011;10925;49.102;-0.370;2022-08-19T07:58:35;6.40;;;2.00;;
21527;SDS011;10925;49.102;-0.370;2022-08-19T08:01:03;6.80;;;2.15;;
21527;SDS011;10925;49.102;-0.370;2022-08-19T08:03:30;5.15;;;2.10;;
21527;SDS011;10925;49.102;-0.370;2022-08-19T08:06:16;4.25;;;1.88;;
21527;SDS011;10925;49.102;-0.370;2022-08-19T08:09:02;5.65;;;1.95;;
21527;SDS011;10925;49.102;-0.370;2022-08-19T08:14:16;7.43;;;2.35;;
21527;SDS011;10925;49.102;-0.370;2022-08-19T08:16:55;3.17;;;2.05;;
21527;SDS011;10925;49.102;-0.370;2022-08-19T08:19:21;3.75;;;2.10;;
21527;SDS011;10925;49.102;-0.370;2022-08-19T08:21:47;7.65;;;2.55;;
21527;SDS011;10925;49.102;-0.370;2022-08-19T08:24:13;4.25;;;2.10;;
21527;SDS011;10925;49.102;-0.370;2022-08-19T08:26:40;5.32;;;2.40;;
21527;SDS011;10925;49.102;-0.370;2022-08-19T08:29:12;4.25;;;2.33;;
21527;SDS011;10925;49.102;-0.370;2022-08-19T08:31:40;6.25;;;2.47;;
21527;SDS011;10925;49.102;-0.370;2022-08-19T08:34:07;6.97;;;2.55;;
21527;SDS011;10925;49.102;-0.370;2022-08-19T08:36:38;5.55;;;2.00;;
21527;SDS011;10925;49.102;-0.370;2022-08-19T08:39:08;3.92;;;1.70;;
21527;SDS011;10925;49.102;-0.370;2022-08-19T08:41:39;3.30;;;1.67;;
21527;SDS011;10925;49.102;-0.370;2022-08-19T08:44:11;3.92;;;2.03;;
21527;SDS011;10925;49.102;-0.370;2022-08-19T08:52:02;4.95;;;1.80;;
21527;SDS011;10925;49.102;-0.370;2022-08-19T08:54:30;6.93;;;2.30;;
21527;SDS011;10925;49.102;-0.370;2022-08-19T08:57:02;6.47;;;2.22;;
21527;SDS011;10925;49.102;-0.370;2022-08-19T08:59:31;4.65;;;2.10;;
21527;SDS011;10925;49.102;-0.370;2022-08-19T09:02:01;4.95;;;1.52;;
21527;SDS011;10925;49.102;-0.370;2022-08-19T09:04:28;4.10;;;1.98;;
21527;SDS011;10925;49.102;-0.370;2022-08-19T09:06:58;5.95;;;2.13;;
21527;SDS011;10925;49.102;-0.370;2022-08-19T09:09:48;4.05;;;1.95;;
21527;SDS011;10925;49.102;-0.370;2022-08-19T09:12:38;3.55;;;1.60;;
21527;SDS011;10925;49.102;-0.370;2022-08-19T09:15:08;5.95;;;1.95;;
21527;SDS011;10925;49.102;-0.370;2022-08-19T09:17:34;7.00;;;1.80;;
21527;SDS011;10925;49.102;-0.370;2022-08-19T09:20:20;4.68;;;1.98;;
21527;SDS011;10925;49.102;-0.370;2022-08-19T09:22:48;3.67;;;1.63;;
21527;SDS011;10925;49.102;-0.370;2022-08-19T09:25:16;6.05;;;2.08;;
21527;SDS011;10925;49.102;-0.370;2022-08-19T09:30:21;4.82;;;2.08;;
21527;SDS011;10925;49.102;-0.370;2022-08-19T09:32:48;5.25;;;1.90;;
21527;SDS011;10925;49.102;-0.370;2022-08-19T09:35:18;3.42;;;1.75;;
21527;SDS011;10925;49.102;-0.370;2022-08-19T09:37:44;4.72;;;1.90;;
21527;SDS011;10925;49.102;-0.370;2022-08-19T09:40:11;6.07;;;2.30;;
21527;SDS011;10925;49.102;-0.370;2022-08-19T09:42:38;4.97;;;2.53;;
21527;SDS011;10925;49.102;-0.370;2022-08-19T09:45:04;4.72;;;2.20;;
21527;SDS011;10925;49.102;-0.370;2022-08-19T09:47:36;4.82;;;2.22;;
21527;SDS011;10925;49.102;-0.370;2022-08-19T09:50:07;5.65;;;2.67;;
21527;SDS011;10925;49.102;-0.370;2022-08-19T09:52:36;4.45;;;2.20;;
21527;SDS011;10925;49.102;-0.370;2022-08-19T09:55:04;6.25;;;1.88;;
21527;SDS011;10925;49.102;-0.370;2022-08-19T09:57:33;4.38;;;1.73;;
21527;SDS011;10925;49.102;-0.370;2022-08-19T10:00:00;4.38;;;1.60;;
21527;SDS011;10925;49.102;-0.370;2022-08-19T10:02:27;3.85;;;1.48;;
21527;SDS011;10925;49.102;-0.370;2022-08-19T10:04:54;7.63;;;2.20;;
21527;SDS011;10925;49.102;-0.370;2022-08-19T10:07:48;5.78;;;2.10;;
21527;SDS011;10925;49.102;-0.370;2022-08-19T10:10:15;5.50;;;1.98;;
21527;SDS011;10925;49.102;-0.370;2022-08-19T10:12:42;5.63;;;1.90;;
21527;SDS011;10925;49.102;-0.370;2022-08-19T10:15:14;3.75;;;1.92;;
21527;SDS011;10925;49.102;-0.370;2022-08-19T10:17:41;4.10;;;2.25;;
21527;SDS011;10925;49.102;-0.370;2022-08-19T10:20:06;3.00;;;2.10;;
21527;SDS011;10925;49.102;-0.370;2022-08-19T10:22:33;5.43;;;2.10;;
21527;SDS011;10925;49.102;-0.370;2022-08-19T10:25:02;9.07;;;2.30;;
21527;SDS011;10925;49.102;-0.370;2022-08-19T10:27:27;6.20;;;2.42;;
21527;SDS011;10925;49.102;-0.370;2022-08-19T10:29:57;6.93;;;2.20;;
21527;SDS011;10925;49.102;-0.370;2022-08-19T10:32:25;7.65;;;2.28;;
21527;SDS011;10925;49.102;-0.370;2022-08-19T10:35:00;7.97;;;2.13;;
21527;SDS011;10925;49.102;-0.370;2022-08-19T10:37:27;5.28;;;2.35;;
21527;SDS011;10925;49.102;-0.370;2022-08-19T10:39:52;8.68;;;2.58;;
21527;SDS011;10925;49.102;-0.370;2022-08-19T10:42:19;6.03;;;2.17;;
21527;SDS011;10925;49.102;-0.370;2022-08-19T10:44:47;4.85;;;2.80;;
21527;SDS011;10925;49.102;-0.370;2022-08-19T10:47:12;9.68;;;2.38;;
21527;SDS011;10925;49.102;-0.370;2022-08-19T10:49:37;6.28;;;2.30;;
21527;SDS011;10925;49.102;-0.370;2022-08-19T10:52:24;7.55;;;2.10;;
21527;SDS011;10925;49.102;-0.370;2022-08-19T10:55:04;7.40;;;2.40;;
21527;SDS011;10925;49.102;-0.370;2022-08-19T10:57:49;6.30;;;2.22;;
21527;SDS011;10925;49.102;-0.370;2022-08-19T11:00:14;5.63;;;2.30;;
21527;SDS011;10925;49.102;-0.370;2022-08-19T11:02:41;5.68;;;2.42;;
21527;SDS011;10925;49.102;-0.370;2022-08-19T11:05:08;5.97;;;2.40;;
21527;SDS011;10925;49.102;-0.370;2022-08-19T11:07:39;4.97;;;2.20;;
21527;SDS011;10925;49.102;-0.370;2022-08-19T11:10:06;5.35;;;2.10;;
21527;SDS011;10925;49.102;-0.370;2022-08-19T11:12:38;7.53;;;2.20;;
21527;SDS011;10925;49.102;-0.370;2022-08-19T11:15:05;6.10;;;2.47;;
21527;SDS011;10925;49.102;-0.370;2022-08-19T11:17:30;6.95;;;2.40;;
21527;SDS011;10925;49.102;-0.370;2022-08-19T11:19:58;7.13;;;2.22;;
21527;SDS011;10925;49.102;-0.370;2022-08-19T11:22:25;4.75;;;1.83;;
21527;SDS011;10925;49.102;-0.370;2022-08-19T11:25:04;5.85;;;1.80;;
21527;SDS011;10925;49.102;-0.370;2022-08-19T11:27:31;4.75;;;1.67;;
21527;SDS011;10925;49.102;-0.370;2022-08-19T11:29:57;4.07;;;1.63;;
21527;SDS011;10925;49.102;-0.370;2022-08-19T11:32:24;4.30;;;1.30;;
21527;SDS011;10925;49.102;-0.370;2022-08-19T11:34:51;4.97;;;1.60;;
21527;SDS011;10925;49.102;-0.370;2022-08-19T11:37:18;2.08;;;1.00;;
21527;SDS011;10925;49.102;-0.370;2022-08-19T11:39:45;3.70;;;1.52;;
21527;SDS011;10925;49.102;-0.370;2022-08-19T11:42:18;2.30;;;1.10;;
21527;SDS011;10925;49.102;-0.370;2022-08-19T11:45:04;3.75;;;1.38;;
21527;SDS011;10925;49.102;-0.370;2022-08-19T11:47:30;2.53;;;1.83;;
21527;SDS011;10925;49.102;-0.370;2022-08-19T11:49:57;9.07;;;6.85;;
21527;SDS011;10925;49.102;-0.370;2022-08-19T11:52:24;6.20;;;3.15;;
21527;SDS011;10925;49.102;-0.370;2022-08-19T11:54:51;4.13;;;1.38;;
21527;SDS011;10925;49.102;-0.370;2022-08-19T11:57:18;3.20;;;0.90;;
21527;SDS011;10925;49.102;-0.370;2022-08-19T11:59:50;1.67;;;0.70;;
21527;SDS011;10925;49.102;-0.370;2022-08-19T12:02:15;1.33;;;0.85;;
21527;SDS011;10925;49.102;-0.370;2022-08-19T12:04:41;2.30;;;1.00;;
21527;SDS011;10925;49.102;-0.370;2022-08-19T12:07:07;1.30;;;0.60;;
21527;SDS011;10925;49.102;-0.370;2022-08-19T12:09:33;1.70;;;0.90;;
21527;SDS011;10925;49.102;-0.370;2022-08-19T12:11:59;1.65;;;0.80;;
21527;SDS011;10925;49.102;-0.370;2022-08-19T12:14:28;1.83;;;0.65;;
21527;SDS011;10925;49.102;-0.370;2022-08-19T12:16:56;1.67;;;0.80;;
21527;SDS011;10925;49.102;-0.370;2022-08-19T12:19:21;1.05;;;0.90;;
21527;SDS011;10925;49.102;-0.370;2022-08-19T12:21:47;1.35;;;0.80;;
21527;SDS011;10925;49.102;-0.370;2022-08-19T12:24:12;2.08;;;0.88;;
21527;SDS011;10925;49.102;-0.370;2022-08-19T12:26:38;1.27;;;0.80;;
21527;SDS011;10925;49.102;-0.370;2022-08-19T12:29:19;1.13;;;0.65;;
21527;SDS011;10925;49.102;-0.370;2022-08-19T12:31:44;2.65;;;0.70;;
21527;SDS011;10925;49.102;-0.370;2022-08-19T12:34:12;0.93;;;0.70;;
21527;SDS011;10925;49.102;-0.370;2022-08-19T12:36:38;1.52;;;0.57;;
21527;SDS011;10925;49.102;-0.370;2022-08-19T12:39:04;2.83;;;0.80;;
21527;SDS011;10925;49.102;-0.370;2022-08-19T12:41:36;1.92;;;0.70;;
21527;SDS011;10925;49.102;-0.370;2022-08-19T12:44:19;2.25;;;0.70;;
21527;SDS011;10925;49.102;-0.370;2022-08-19T12:46:46;0.75;;;0.50;;
21527;SDS011;10925;49.102;-0.370;2022-08-19T12:49:11;1.42;;;0.47;;
21527;SDS011;10925;49.102;-0.370;2022-08-19T12:54:24;0.73;;;0.50;;
21527;SDS011;10925;49.102;-0.370;2022-08-19T12:56:51;0.40;;;0.32;;
21527;SDS011;10925;49.102;-0.370;2022-08-19T12:59:18;0.40;;;0.40;;
21527;SDS011;10925;49.102;-0.370;2022-08-19T13:01:45;0.90;;;0.43;;
21527;SDS011;10925;49.102;-0.370;2022-08-19T13:04:11;2.00;;;0.47;;
21527;SDS011;10925;49.102;-0.370;2022-08-19T13:06:38;0.80;;;0.52;;
21527;SDS011;10925;49.102;-0.370;2022-08-19T13:09:05;1.42;;;0.40;;
21527;SDS011;10925;49.102;-0.370;2022-08-19T13:11:32;0.85;;;0.40;;
21527;SDS011;10925;49.102;-0.370;2022-08-19T13:14:00;0.45;;;0.20;;
21527;SDS011;10925;49.102;-0.370;2022-08-19T13:16:26;0.57;;;0.40;;
21527;SDS011;10925;49.102;-0.370;2022-08-19T13:18:54;1.75;;;0.35;;
21527;SDS011;10925;49.102;-0.370;2022-08-19T13:21:23;1.63;;;0.50;;
21527;SDS011;10925;49.102;-0.370;2022-08-19T13:23:50;4.03;;;0.60;;
21527;SDS011;10925;49.102;-0.370;2022-08-19T13:26:17;0.68;;;0.52;;
21527;SDS011;10925;49.102;-0.370;2022-08-19T13:28:44;2.63;;;0.90;;
21527;SDS011;10925;49.102;-0.370;2022-08-19T13:31:30;1.85;;;0.70;;
21527;SDS011;10925;49.102;-0.370;2022-08-19T13:34:14;2.40;;;0.80;;
21527;SDS011;10925;49.102;-0.370;2022-08-19T13:36:40;2.20;;;0.77;;
21527;SDS011;10925;49.102;-0.370;2022-08-19T13:39:06;0.93;;;0.70;;
21527;SDS011;10925;49.102;-0.370;2022-08-19T13:41:34;1.73;;;0.80;;
21527;SDS011;10925;49.102;-0.370;2022-08-19T13:43:59;1.92;;;0.65;;
21527;SDS011;10925;49.102;-0.370;2022-08-19T13:46:25;3.53;;;0.70;;
21527;SDS011;10925;49.102;-0.370;2022-08-19T13:48:52;2.97;;;0.70;;
21527;SDS011;10925;49.102;-0.370;2022-08-19T13:51:19;3.17;;;0.77;;
21527;SDS011;10925;49.102;-0.370;2022-08-19T13:53:46;0.90;;;0.60;;
21527;SDS011;10925;49.102;-0.370;2022-08-19T13:56:14;1.17;;;0.50;;
21527;SDS011;10925;49.102;-0.370;2022-08-19T13:58:41;0.43;;;0.43;;
21527;SDS011;10925;49.102;-0.370;2022-08-19T14:01:08;0.52;;;0.50;;
21527;SDS011;10925;49.102;-0.370;2022-08-19T14:03:35;0.75;;;0.43;;
21527;SDS011;10925;49.102;-0.370;2022-08-19T14:06:02;0.85;;;0.50;;
21527;SDS011;10925;49.102;-0.370;2022-08-19T14:08:29;1.42;;;0.60;;
21527;SDS011;10925;49.102;-0.370;2022-08-19T14:10:58;1.38;;;0.45;;
21527;SDS011;10925;49.102;-0.370;2022-08-19T14:13:31;0.47;;;0.40;;
21527;SDS011;10925;49.102;-0.370;2022-08-19T14:16:00;1.67;;;0.70;;
21527;SDS011;10925;49.102;-0.370;2022-08-19T14:18:26;1.73;;;0.85;;
21527;SDS011;10925;49.102;-0.370;2022-08-19T14:20:56;2.63;;;0.90;;
21527;SDS011;10925;49.102;-0.370;2022-08-19T14:23:24;1.55;;;0.98;;
21527;SDS011;10925;49.102;-0.370;2022-08-19T14:25:51;1.90;;;1.10;;
21527;SDS011;10925;49.102;-0.370;2022-08-19T14:28:17;2.22;;;1.10;;
21527;SDS011;10925;49.102;-0.370;2022-08-19T14:30:43;1.63;;;1.00;;
21527;SDS011;10925;49.102;-0.370;2022-08-19T14:33:10;2.53;;;1.05;;
21527;SDS011;10925;49.102;-0.370;2022-08-19T14:35:37;2.95;;;0.90;;
21527;SDS011;10925;49.102;-0.370;2022-08-19T14:38:03;3.35;;;1.15;;
21527;SDS011;10925;49.102;-0.370;2022-08-19T14:40:30;1.30;;;1.00;;
21527;SDS011;10925;49.102;-0.370;2022-08-19T14:42:59;3.50;;;1.02;;
21527;SDS011;10925;49.102;-0.370;2022-08-19T14:45:29;3.85;;;0.90;;
21527;SDS011;10925;49.102;-0.370;2022-08-19T14:47:57;1.58;;;0.98;;
21527;SDS011;10925;49.102;-0.370;2022-08-19T14:50:25;2.83;;;1.00;;
21527;SDS011;10925;49.102;-0.370;2022-08-19T14:52:57;1.30;;;1.05;;
21527;SDS011;10925;49.102;-0.370;2022-08-19T14:55:24;1.40;;;0.90;;
21527;SDS011;10925;49.102;-0.370;2022-08-19T14:57:51;2.08;;;1.10;;
21527;SDS011;10925;49.102;-0.370;2022-08-19T15:00:16;2.08;;;1.13;;
21527;SDS011;10925;49.102;-0.370;2022-08-19T15:02:43;1.65;;;1.02;;
21527;SDS011;10925;49.102;-0.370;2022-08-19T15:05:12;2.80;;;1.23;;